Time;durP1;ratioP1;P1;durP2;ratioP2;P2;SDS_P1;SDS_P2;PMS_P1;PMS_P2;Temp;Humidity;BMP_temperature;BMP_pressure;BME280_temperature;BME280_humidity;BME280_pressure;Samples;Min_cycle;Max_cycle;Signal;HPM_P1;HPM_P2
2022/07/21 00:02:04;;;;;;;15.43;5.70;;;;;;;;;;4970227;28;20022;-74
2022/07/21 00:04:30;;;;;;;13.05;5.95;;;;;;;;;;4971211;28;20034;-74
2022/07/21 00:06:56;;;;;;;9.05;5.80;;;;;;;;;;4969794;28;20034;-74
2022/07/21 00:09:21;;;;;;;8.48;5.35;;;;;;;;;;4986269;28;20054;-74
2022/07/21 00:11:47;;;;;;;9.60;5.50;;;;;;;;;;4969996;28;20033;-73
2022/07/21 00:14:13;;;;;;;13.82;5.35;;;;;;;;;;4969821;28;20061;-74
2022/07/21 00:16:40;;;;;;;10.80;5.57;;;;;;;;;;4970905;28;20037;-74
2022/07/21 00:19:05;;;;;;;7.60;4.63;;;;;;;;;;4971043;28;20034;-73
2022/07/21 00:21:31;;;;;;;9.13;4.72;;;;;;;;;;4970930;28;20027;-74
2022/07/21 00:23:56;;;;;;;8.25;5.00;;;;;;;;;;4969285;28;20050;-74
2022/07/21 00:26:22;;;;;;;9.75;4.40;;;;;;;;;;4969644;28;20030;-75
2022/07/21 00:28:48;;;;;;;11.15;5.47;;;;;;;;;;4985866;28;20038;-74
2022/07/21 00:31:14;;;;;;;10.55;4.72;;;;;;;;;;4971058;28;20037;-74
2022/07/21 00:33:39;;;;;;;8.70;4.30;;;;;;;;;;4969488;28;20117;-74
2022/07/21 00:36:05;;;;;;;10.55;4.43;;;;;;;;;;4971110;28;20105;-74
2022/07/21 00:38:31;;;;;;;8.32;4.70;;;;;;;;;;4971009;28;20035;-75
2022/07/21 00:40:58;;;;;;;8.35;4.53;;;;;;;;;;4970648;28;20031;-74
2022/07/21 00:43:23;;;;;;;12.50;5.18;;;;;;;;;;4974355;28;20027;-74
2022/07/21 00:45:54;;;;;;;11.35;5.20;;;;;;;;;;4974234;28;20026;-74
2022/07/21 00:48:20;;;;;;;7.60;4.82;;;;;;;;;;4972946;28;20027;-74
2022/07/21 00:50:45;;;;;;;9.38;4.53;;;;;;;;;;4973826;28;20108;-74
2022/07/21 00:53:11;;;;;;;7.90;4.78;;;;;;;;;;4973937;28;20042;-74
2022/07/21 00:55:37;;;;;;;5.43;4.45;;;;;;;;;;4973989;28;20035;-74
2022/07/21 00:58:03;;;;;;;10.48;5.25;;;;;;;;;;4974362;28;20077;-74
2022/07/21 01:00:29;;;;;;;6.68;4.85;;;;;;;;;;4974228;28;20023;-74
2022/07/21 01:02:57;;;;;;;8.55;5.50;;;;;;;;;;4974136;28;20243;-74
2022/07/21 01:05:23;;;;;;;7.35;4.78;;;;;;;;;;4972950;28;20058;-74
2022/07/21 01:07:51;;;;;;;11.30;5.30;;;;;;;;;;4972062;28;20065;-74
2022/07/21 01:10:18;;;;;;;7.78;4.85;;;;;;;;;;4972500;28;20027;-74
2022/07/21 01:12:44;;;;;;;9.48;5.13;;;;;;;;;;4973589;28;20031;-74
2022/07/21 01:15:12;;;;;;;8.82;5.75;;;;;;;;;;4972538;28;20068;-74
2022/07/21 01:17:37;;;;;;;7.35;4.88;;;;;;;;;;4973913;28;20495;-74
2022/07/21 01:20:06;;;;;;;64.45;30.77;;;;;;;;;;4973840;28;20057;-74
2022/07/21 01:22:33;;;;;;;7.70;5.30;;;;;;;;;;4973779;28;20030;-75
2022/07/21 01:24:59;;;;;;;19.25;6.22;;;;;;;;;;4973328;28;20027;-74
2022/07/21 01:27:28;;;;;;;14.80;6.18;;;;;;;;;;4972552;28;20041;-74
2022/07/21 01:29:55;;;;;;;14.23;5.70;;;;;;;;;;4973461;28;20023;-74
2022/07/21 01:32:21;;;;;;;12.55;5.28;;;;;;;;;;4973462;28;20118;-73
2022/07/21 01:34:46;;;;;;;7.68;5.10;;;;;;;;;;4973334;28;20158;-74
2022/07/21 01:37:12;;;;;;;9.90;5.05;;;;;;;;;;4972482;28;20371;-74
2022/07/21 01:42:22;;;;;;;10.95;5.55;;;;;;;;;;4973826;28;20029;-73
2022/07/21 01:44:49;;;;;;;7.05;5.55;;;;;;;;;;4972938;28;20391;-74
2022/07/21 01:47:17;;;;;;;7.32;5.00;;;;;;;;;;4973252;28;20110;-74
2022/07/21 01:49:43;;;;;;;11.27;5.03;;;;;;;;;;4972891;28;20055;-73
2022/07/21 01:52:08;;;;;;;22.40;5.60;;;;;;;;;;4972566;28;20499;-74
2022/07/21 01:54:35;;;;;;;9.75;5.63;;;;;;;;;;4972052;28;20037;-74
2022/07/21 01:57:01;;;;;;;14.63;5.80;;;;;;;;;;4973367;28;20025;-74
2022/07/21 01:59:26;;;;;;;8.68;5.05;;;;;;;;;;4971686;28;20114;-73
2022/07/21 02:01:51;;;;;;;12.55;5.60;;;;;;;;;;4972854;28;20033;-74
2022/07/21 02:04:17;;;;;;;6.13;5.07;;;;;;;;;;4972880;28;20031;-74
2022/07/21 02:06:43;;;;;;;10.52;5.53;;;;;;;;;;4972596;28;20486;-76
2022/07/21 02:09:08;;;;;;;11.73;5.72;;;;;;;;;;4971491;28;20026;-73
2022/07/21 02:11:34;;;;;;;9.82;5.95;;;;;;;;;;4972949;28;20062;-73
2022/07/21 02:14:01;;;;;;;12.43;5.68;;;;;;;;;;4972569;28;20027;-74
2022/07/21 02:16:27;;;;;;;11.25;5.50;;;;;;;;;;4972692;28;20034;-74
2022/07/21 02:18:52;;;;;;;7.13;4.88;;;;;;;;;;4970947;28;20407;-75
2022/07/21 02:21:18;;;;;;;14.05;5.82;;;;;;;;;;4971095;28;20467;-75
2022/07/21 02:23:43;;;;;;;14.10;5.22;;;;;;;;;;4971070;28;20026;-74
2022/07/21 02:26:09;;;;;;;11.77;5.07;;;;;;;;;;4971122;28;20497;-75
2022/07/21 02:28:34;;;;;;;9.45;4.63;;;;;;;;;;4971016;28;20088;-73
2022/07/21 02:31:00;;;;;;;7.03;5.32;;;;;;;;;;4970863;28;20084;-73
2022/07/21 02:33:25;;;;;;;12.38;5.18;;;;;;;;;;4972402;28;20031;-73
2022/07/21 02:35:51;;;;;;;7.43;4.68;;;;;;;;;;4972156;28;20030;-74
2022/07/21 02:38:16;;;;;;;15.52;5.65;;;;;;;;;;4972360;28;20055;-73
2022/07/21 02:40:42;;;;;;;9.45;5.32;;;;;;;;;;4970900;28;20030;-75
2022/07/21 02:43:08;;;;;;;9.02;5.10;;;;;;;;;;4986937;28;20026;-74
2022/07/21 02:45:34;;;;;;;8.55;4.60;;;;;;;;;;4986854;28;20035;-74
2022/07/21 02:48:04;;;;;;;7.72;5.22;;;;;;;;;;4970778;28;20131;-74
2022/07/21 02:50:33;;;;;;;8.40;5.53;;;;;;;;;;4970937;28;20129;-74
2022/07/21 02:53:07;;;;;;;8.00;4.95;;;;;;;;;;4970461;28;20109;-73
2022/07/21 02:55:33;;;;;;;15.27;5.50;;;;;;;;;;4971935;28;20034;-75
2022/07/21 02:58:11;;;;;;;7.97;5.25;;;;;;;;;;4971700;28;20038;-74
2022/07/21 03:00:39;;;;;;;23.35;6.28;;;;;;;;;;4970348;28;20023;-74
2022/07/21 03:03:05;;;;;;;12.25;5.25;;;;;;;;;;4971993;28;20029;-74
2022/07/21 03:05:32;;;;;;;10.32;5.53;;;;;;;;;;4971173;28;20479;-74
2022/07/21 03:07:58;;;;;;;12.63;5.63;;;;;;;;;;4971871;28;20023;-74
2022/07/21 03:10:23;;;;;;;12.85;5.70;;;;;;;;;;4972118;28;20034;-74
2022/07/21 03:12:48;;;;;;;10.15;5.20;;;;;;;;;;4971599;28;20077;-74
2022/07/21 03:15:14;;;;;;;32.13;7.00;;;;;;;;;;4986847;28;20026;-74
2022/07/21 03:17:39;;;;;;;7.07;4.80;;;;;;;;;;4972268;28;20026;-74
2022/07/21 03:20:05;;;;;;;6.30;5.63;;;;;;;;;;4972012;28;20066;-74
2022/07/21 03:22:32;;;;;;;7.93;4.90;;;;;;;;;;4970586;28;20066;-74
2022/07/21 03:24:58;;;;;;;9.68;4.78;;;;;;;;;;4971659;28;20034;-74
2022/07/21 03:27:23;;;;;;;12.82;5.32;;;;;;;;;;4972000;28;20062;-74
2022/07/21 03:29:48;;;;;;;11.20;5.18;;;;;;;;;;4971513;28;20054;-74
2022/07/21 03:32:14;;;;;;;17.73;5.30;;;;;;;;;;4971811;28;20030;-74
2022/07/21 03:34:39;;;;;;;11.38;5.68;;;;;;;;;;4970340;28;20109;-73
2022/07/21 03:37:05;;;;;;;13.10;5.78;;;;;;;;;;4971957;28;20490;-74
2022/07/21 03:39:30;;;;;;;7.97;5.28;;;;;;;;;;4970484;28;20046;-74
2022/07/21 03:41:56;;;;;;;7.82;5.18;;;;;;;;;;4971293;28;20018;-73
2022/07/21 03:44:21;;;;;;;8.13;4.72;;;;;;;;;;4971461;28;20106;-73
2022/07/21 03:46:47;;;;;;;14.32;5.35;;;;;;;;;;4972537;28;20103;-73
2022/07/21 03:49:12;;;;;;;10.73;5.50;;;;;;;;;;4971883;28;20022;-73
2022/07/21 03:51:38;;;;;;;8.60;5.82;;;;;;;;;;4970315;28;20081;-74
2022/07/21 03:54:03;;;;;;;10.02;5.28;;;;;;;;;;4972072;28;20051;-74
2022/07/21 03:56:29;;;;;;;7.80;5.03;;;;;;;;;;4971783;28;20043;-74
2022/07/21 03:58:55;;;;;;;11.43;5.57;;;;;;;;;;4971271;28;20398;-74
2022/07/21 04:01:20;;;;;;;10.18;5.85;;;;;;;;;;4971638;28;20038;-74
2022/07/21 04:03:45;;;;;;;12.13;6.10;;;;;;;;;;4971116;28;20038;-74
2022/07/21 04:06:11;;;;;;;13.18;5.30;;;;;;;;;;4969282;28;20098;-74
2022/07/21 04:08:37;;;;;;;18.73;6.00;;;;;;;;;;4971438;28;20027;-74
2022/07/21 04:11:03;;;;;;;7.72;4.85;;;;;;;;;;4985721;28;20075;-74
2022/07/21 04:13:29;;;;;;;6.80;5.00;;;;;;;;;;4970097;28;20487;-74
2022/07/21 04:15:54;;;;;;;13.77;5.75;;;;;;;;;;4972977;28;20057;-74
2022/07/21 04:18:20;;;;;;;10.90;5.53;;;;;;;;;;4973296;28;20035;-74
2022/07/21 04:20:45;;;;;;;12.20;5.18;;;;;;;;;;4974952;28;20378;-73
2022/07/21 04:23:11;;;;;;;9.98;5.40;;;;;;;;;;4973375;28;20018;-74
2022/07/21 04:25:38;;;;;;;9.75;4.55;;;;;;;;;;4973364;28;20031;-74
2022/07/21 04:28:05;;;;;;;9.73;4.78;;;;;;;;;;4975191;28;20053;-75
2022/07/21 04:30:31;;;;;;;13.35;5.65;;;;;;;;;;4974583;28;20479;-75
2022/07/21 04:32:56;;;;;;;11.95;4.82;;;;;;;;;;4973251;28;20094;-75
2022/07/21 04:35:22;;;;;;;17.23;5.28;;;;;;;;;;4974868;28;20039;-74
2022/07/21 04:37:48;;;;;;;13.70;5.63;;;;;;;;;;4975115;28;20051;-74
2022/07/21 04:40:14;;;;;;;7.38;5.32;;;;;;;;;;4973480;28;20474;-74
2022/07/21 04:42:41;;;;;;;14.45;6.97;;;;;;;;;;4974625;28;20038;-74
2022/07/21 04:45:08;;;;;;;9.77;5.50;;;;;;;;;;4974593;28;20042;-74
2022/07/21 04:47:45;;;;;;;11.30;5.30;;;;;;;;;;4973211;28;20130;-74
2022/07/21 04:50:11;;;;;;;11.23;5.40;;;;;;;;;;4974001;28;20062;-74
2022/07/21 04:52:36;;;;;;;14.98;5.18;;;;;;;;;;4974323;28;20035;-74
2022/07/21 04:55:02;;;;;;;8.43;5.03;;;;;;;;;;4974268;28;20038;-74
2022/07/21 04:57:28;;;;;;;10.40;4.97;;;;;;;;;;4974134;28;20046;-75
2022/07/21 04:59:53;;;;;;;8.85;5.38;;;;;;;;;;4973863;28;20019;-73
2022/07/21 05:02:19;;;;;;;10.25;4.50;;;;;;;;;;4972709;28;20018;-74
2022/07/21 05:04:44;;;;;;;13.35;5.05;;;;;;;;;;4988969;28;20117;-74
2022/07/21 05:07:10;;;;;;;11.63;4.93;;;;;;;;;;4974327;28;20054;-74
2022/07/21 05:09:36;;;;;;;10.30;4.78;;;;;;;;;;4988975;28;20035;-74
2022/07/21 05:12:01;;;;;;;10.82;5.35;;;;;;;;;;4973420;28;20030;-73
2022/07/21 05:14:27;;;;;;;12.45;5.20;;;;;;;;;;4967865;28;20022;-73
2022/07/21 05:16:54;;;;;;;29.90;6.38;;;;;;;;;;4967787;28;20034;-75
2022/07/21 05:19:19;;;;;;;10.90;4.97;;;;;;;;;;4972797;28;20514;-74
2022/07/21 05:21:46;;;;;;;16.38;5.80;;;;;;;;;;4972861;28;20058;-74
2022/07/21 05:24:11;;;;;;;12.23;6.20;;;;;;;;;;4971597;28;20035;-74
2022/07/21 05:26:37;;;;;;;12.98;6.07;;;;;;;;;;4972759;28;20031;-74
2022/07/21 05:29:03;;;;;;;12.57;5.47;;;;;;;;;;4972701;28;20221;-74
2022/07/21 05:31:28;;;;;;;15.00;5.03;;;;;;;;;;4972973;28;20038;-75
2022/07/21 05:33:54;;;;;;;9.15;5.07;;;;;;;;;;4971574;28;20110;-75
2022/07/21 05:36:20;;;;;;;13.15;5.03;;;;;;;;;;4972434;28;20109;-73
2022/07/21 05:38:46;;;;;;;13.13;5.65;;;;;;;;;;4971309;28;20505;-75
2022/07/21 05:41:12;;;;;;;9.52;7.13;;;;;;;;;;4967633;28;20038;-72
2022/07/21 05:43:37;;;;;;;14.35;6.10;;;;;;;;;;4969655;28;20049;-73
2022/07/21 05:46:03;;;;;;;13.07;5.70;;;;;;;;;;4962834;28;20035;-74
2022/07/21 05:48:28;;;;;;;10.13;5.75;;;;;;;;;;4961380;28;20035;-74
2022/07/21 05:50:54;;;;;;;14.07;5.60;;;;;;;;;;4964903;28;20379;-75
2022/07/21 05:53:19;;;;;;;12.82;5.75;;;;;;;;;;4960235;28;20027;-74
2022/07/21 05:55:45;;;;;;;8.45;5.75;;;;;;;;;;4972284;28;20038;-74
2022/07/21 05:58:11;;;;;;;18.13;5.97;;;;;;;;;;4966091;28;20042;-76
2022/07/21 06:00:37;;;;;;;12.10;6.10;;;;;;;;;;4976835;28;20030;-75
2022/07/21 06:03:02;;;;;;;9.20;5.65;;;;;;;;;;4969982;28;20050;-75
2022/07/21 06:05:28;;;;;;;16.75;6.15;;;;;;;;;;4968947;28;20037;-75
2022/07/21 06:07:53;;;;;;;17.00;5.90;;;;;;;;;;4970652;28;20406;-75
2022/07/21 06:10:19;;;;;;;12.43;6.25;;;;;;;;;;4967092;28;20031;-72
2022/07/21 06:12:44;;;;;;;17.83;7.20;;;;;;;;;;4965976;28;20023;-75
2022/07/21 06:15:11;;;;;;;16.20;6.95;;;;;;;;;;4969296;28;20022;-74
2022/07/21 06:17:44;;;;;;;8.77;5.13;;;;;;;;;;4968851;28;20038;-73
2022/07/21 06:20:11;;;;;;;10.93;5.25;;;;;;;;;;4957599;28;20399;-75
2022/07/21 06:22:37;;;;;;;9.73;4.80;;;;;;;;;;4961288;28;20027;-74
2022/07/21 06:25:04;;;;;;;13.27;5.60;;;;;;;;;;4965483;28;20562;-74
2022/07/21 06:27:31;;;;;;;18.58;5.72;;;;;;;;;;4968223;28;20082;-74
2022/07/21 06:29:58;;;;;;;15.82;5.30;;;;;;;;;;4964970;28;20118;-75
2022/07/21 06:32:24;;;;;;;14.43;5.38;;;;;;;;;;4980089;28;20386;-76
2022/07/21 06:34:50;;;;;;;9.18;5.25;;;;;;;;;;4963000;28;20023;-75
2022/07/21 06:37:16;;;;;;;15.25;5.40;;;;;;;;;;4963646;28;20034;-74
2022/07/21 06:39:42;;;;;;;18.33;14.52;;;;;;;;;;4955743;28;20034;-75
2022/07/21 06:42:08;;;;;;;14.55;5.65;;;;;;;;;;4959732;28;20043;-75
2022/07/21 06:44:34;;;;;;;13.43;5.50;;;;;;;;;;4959751;28;20033;-75
2022/07/21 06:47:04;;;;;;;11.23;5.57;;;;;;;;;;4964033;28;20070;-75
2022/07/21 06:49:33;;;;;;;13.60;5.90;;;;;;;;;;4961356;28;20035;-74
2022/07/21 06:51:59;;;;;;;13.07;4.88;;;;;;;;;;4962090;28;20051;-74
2022/07/21 06:54:25;;;;;;;10.90;5.00;;;;;;;;;;4964459;28;20047;-75
2022/07/21 06:56:51;;;;;;;15.90;5.10;;;;;;;;;;4972390;28;20034;-74
2022/07/21 06:59:17;;;;;;;13.82;5.63;;;;;;;;;;4961753;28;20045;-74
2022/07/21 07:01:43;;;;;;;10.80;4.63;;;;;;;;;;4967263;28;20049;-74
2022/07/21 07:04:08;;;;;;;16.80;7.20;;;;;;;;;;4962834;28;20450;-74
2022/07/21 07:06:34;;;;;;;15.80;5.72;;;;;;;;;;4968294;28;20038;-76
2022/07/21 07:09:00;;;;;;;14.85;5.60;;;;;;;;;;4968671;28;20636;-74
2022/07/21 07:11:26;;;;;;;10.20;5.75;;;;;;;;;;4960139;28;20031;-74
2022/07/21 07:13:52;;;;;;;17.35;5.22;;;;;;;;;;4965074;28;20089;-75
2022/07/21 07:16:41;;;;;;;;;;;;;;;;;;;;;
2022/07/21 07:19:07;;;;;;;14.93;5.72;;;;;;;;;;4954672;28;20034;-76
2022/07/21 07:21:33;;;;;;;22.30;7.38;;;;;;;;;;4962177;28;20027;-76
2022/07/21 07:24:02;;;;;;;10.75;5.55;;;;;;;;;;4957860;28;20063;-75
2022/07/21 07:26:28;;;;;;;14.65;5.38;;;;;;;;;;4959057;28;20035;-75
2022/07/21 07:28:54;;;;;;;12.65;7.95;;;;;;;;;;4964561;28;20022;-75
2022/07/21 07:31:21;;;;;;;17.73;5.78;;;;;;;;;;4961779;28;20498;-74
2022/07/21 07:33:47;;;;;;;13.23;4.90;;;;;;;;;;4958488;28;20043;-75
2022/07/21 07:36:13;;;;;;;10.90;5.45;;;;;;;;;;4961582;28;20038;-74
2022/07/21 07:38:39;;;;;;;9.93;4.88;;;;;;;;;;4961288;28;20038;-76
2022/07/21 07:41:09;;;;;;;28.33;13.73;;;;;;;;;;4961694;28;20568;-76
2022/07/21 07:43:35;;;;;;;15.13;5.22;;;;;;;;;;4980511;28;20039;-75
2022/07/21 07:46:01;;;;;;;10.45;5.45;;;;;;;;;;4967772;28;20030;-76
2022/07/21 07:48:27;;;;;;;13.50;5.43;;;;;;;;;;4947469;28;20069;-77
2022/07/21 07:50:54;;;;;;;14.18;5.15;;;;;;;;;;4980603;28;20562;-78
2022/07/21 07:53:23;;;;;;;7.13;5.28;;;;;;;;;;4969256;28;20030;-78
2022/07/21 07:55:49;;;;;;;9.70;4.90;;;;;;;;;;4965485;28;20043;-77
2022/07/21 07:58:16;;;;;;;15.25;4.88;;;;;;;;;;4965506;28;20146;-77
2022/07/21 08:00:42;;;;;;;7.22;4.65;;;;;;;;;;4964426;28;20121;-76
2022/07/21 08:03:08;;;;;;;14.75;5.35;;;;;;;;;;4967779;28;20067;-78
2022/07/21 08:05:36;;;;;;;10.20;4.75;;;;;;;;;;4960581;28;20042;-76
2022/07/21 08:08:02;;;;;;;9.75;5.35;;;;;;;;;;4962513;28;20554;-77
2022/07/21 08:10:29;;;;;;;9.00;4.70;;;;;;;;;;4965102;28;20077;-78
2022/07/21 08:12:55;;;;;;;18.45;5.70;;;;;;;;;;4982360;28;20053;-75
2022/07/21 08:15:21;;;;;;;9.98;6.20;;;;;;;;;;4970694;28;20054;-76
2022/07/21 08:17:49;;;;;;;10.27;5.18;;;;;;;;;;4969797;28;20065;-77
2022/07/21 08:20:14;;;;;;;13.77;4.43;;;;;;;;;;4959718;28;20125;-76
2022/07/21 08:22:40;;;;;;;15.88;5.43;;;;;;;;;;4967020;28;20532;-76
2022/07/21 08:25:07;;;;;;;15.05;5.93;;;;;;;;;;4969924;28;20035;-77
2022/07/21 08:27:32;;;;;;;9.55;5.22;;;;;;;;;;4967822;28;20434;-79
2022/07/21 08:30:01;;;;;;;9.25;6.13;;;;;;;;;;4963864;28;20031;-78
2022/07/21 08:32:26;;;;;;;16.13;6.13;;;;;;;;;;4965458;28;20105;-76
2022/07/21 08:34:52;;;;;;;9.60;5.78;;;;;;;;;;4962878;28;20035;-76
2022/07/21 08:37:22;;;;;;;14.40;5.70;;;;;;;;;;4960328;28;20039;-76
2022/07/21 08:39:48;;;;;;;10.93;6.15;;;;;;;;;;4969654;28;20022;-76
2022/07/21 08:42:15;;;;;;;9.40;5.55;;;;;;;;;;4981612;28;20090;-76
2022/07/21 08:44:41;;;;;;;11.50;6.78;;;;;;;;;;4953314;28;20042;-76
2022/07/21 08:47:06;;;;;;;13.00;6.07;;;;;;;;;;4968259;28;20163;-77
2022/07/21 08:49:37;;;;;;;13.75;5.75;;;;;;;;;;4970322;28;20045;-78
2022/07/21 08:52:05;;;;;;;12.80;5.50;;;;;;;;;;4966317;28;20050;-76
2022/07/21 08:54:32;;;;;;;7.70;6.07;;;;;;;;;;4970641;28;20138;-77
2022/07/21 08:56:58;;;;;;;21.65;6.65;;;;;;;;;;4969726;28;20398;-76
2022/07/21 08:59:23;;;;;;;9.23;5.65;;;;;;;;;;4964752;28;20121;-76
2022/07/21 09:01:49;;;;;;;20.17;6.45;;;;;;;;;;4969893;28;20118;-77
2022/07/21 09:04:29;;;;;;;13.07;6.72;;;;;;;;;;4967536;28;20023;-76
2022/07/21 09:06:56;;;;;;;9.48;5.60;;;;;;;;;;4976244;28;20045;-77
2022/07/21 09:09:24;;;;;;;12.75;5.93;;;;;;;;;;4973128;28;20075;-76
2022/07/21 09:11:50;;;;;;;15.15;5.85;;;;;;;;;;4968846;28;20045;-77
2022/07/21 09:14:30;;;;;;;12.05;6.32;;;;;;;;;;4975167;28;20027;-75
2022/07/21 09:16:58;;;;;;;10.10;5.30;;;;;;;;;;4956364;28;20034;-75
2022/07/21 09:19:26;;;;;;;12.70;5.70;;;;;;;;;;4964627;28;20034;-75
2022/07/21 09:21:54;;;;;;;13.82;6.28;;;;;;;;;;4967390;28;20047;-77
2022/07/21 09:24:38;;;;;;;17.08;5.90;;;;;;;;;;4962581;28;20039;-77
2022/07/21 09:27:09;;;;;;;14.65;5.47;;;;;;;;;;4966732;28;20023;-75
2022/07/21 09:29:41;;;;;;;10.98;6.13;;;;;;;;;;4971184;28;20145;-76
2022/07/21 09:32:14;;;;;;;25.17;6.80;;;;;;;;;;4962026;28;20061;-76
2022/07/21 09:34:40;;;;;;;11.23;7.10;;;;;;;;;;4968758;28;20037;-75
2022/07/21 09:37:07;;;;;;;13.55;6.75;;;;;;;;;;4968311;28;20033;-78
2022/07/21 09:39:50;;;;;;;8.85;6.60;;;;;;;;;;4985008;28;20062;-77
2022/07/21 09:42:28;;;;;;;7.93;6.45;;;;;;;;;;4968181;28;20030;-77
2022/07/21 09:44:54;;;;;;;14.20;6.90;;;;;;;;;;4962473;28;20109;-76
2022/07/21 09:47:22;;;;;;;9.07;6.47;;;;;;;;;;4981330;28;20077;-77
2022/07/21 09:49:47;;;;;;;10.52;6.50;;;;;;;;;;4968239;28;20494;-78
2022/07/21 09:52:20;;;;;;;14.10;6.85;;;;;;;;;;4969768;28;20047;-77
2022/07/21 09:54:48;;;;;;;11.48;7.10;;;;;;;;;;4970143;28;20042;-77
2022/07/21 09:57:16;;;;;;;16.45;7.35;;;;;;;;;;4971255;28;20045;-77
2022/07/21 09:59:47;;;;;;;15.65;7.25;;;;;;;;;;4970511;28;20030;-78
2022/07/21 10:02:32;;;;;;;;;;;;;;;;;;4970545;28;20038;-77
2022/07/21 10:05:10;;;;;;;21.85;8.10;;;;;;;;;;4970302;28;19924;-76
2022/07/21 10:07:39;;;;;;;14.63;6.90;;;;;;;;;;4954207;28;20054;-77
2022/07/21 10:10:05;;;;;;;15.93;7.68;;;;;;;;;;4971022;28;20049;-76
2022/07/21 10:12:30;;;;;;;27.58;10.90;;;;;;;;;;4961686;28;20130;-75
2022/07/21 10:14:57;;;;;;;17.17;7.97;;;;;;;;;;4983668;28;20153;-77
2022/07/21 10:17:25;;;;;;;12.95;8.18;;;;;;;;;;4957643;28;20035;-75
2022/07/21 10:19:56;;;;;;;14.43;7.53;;;;;;;;;;4969618;28;20062;-77
2022/07/21 10:22:49;;;;;;;12.68;8.20;;;;;;;;;;4969930;28;20019;-76
2022/07/21 10:25:16;;;;;;;12.18;9.20;;;;;;;;;;4969164;28;20061;-75
2022/07/21 10:28:14;;;;;;;12.13;8.52;;;;;;;;;;4985437;28;20394;-75
2022/07/21 10:30:42;;;;;;;17.63;8.27;;;;;;;;;;4966738;28;20037;-76
2022/07/21 10:33:07;;;;;;;12.18;7.82;;;;;;;;;;4967307;28;20064;-77
2022/07/21 10:35:33;;;;;;;12.95;7.53;;;;;;;;;;4969079;28;20031;-76
2022/07/21 10:38:00;;;;;;;15.80;7.82;;;;;;;;;;4963791;28;20042;-76
2022/07/21 10:40:29;;;;;;;12.52;8.23;;;;;;;;;;4964163;28;20047;-76
2022/07/21 10:43:03;;;;;;;14.13;7.97;;;;;;;;;;4970243;28;20051;-76
2022/07/21 10:45:33;;;;;;;16.23;8.13;;;;;;;;;;4970725;28;20027;-76
2022/07/21 10:47:59;;;;;;;10.90;7.47;;;;;;;;;;4969003;28;20041;-76
2022/07/21 10:50:37;;;;;;;14.38;8.90;;;;;;;;;;4963205;28;20042;-75
2022/07/21 10:53:14;;;;;;;9.75;7.88;;;;;;;;;;4961697;28;20328;-75
2022/07/21 10:55:47;;;;;;;14.90;9.80;;;;;;;;;;4974409;28;20510;-74
2022/07/21 10:58:25;;;;;;;14.93;8.27;;;;;;;;;;4980506;28;20054;-75
2022/07/21 11:01:03;;;;;;;14.10;9.15;;;;;;;;;;4982767;28;20470;-75
2022/07/21 11:03:34;;;;;;;18.10;9.95;;;;;;;;;;4963139;28;20031;-76
2022/07/21 11:06:08;;;;;;;13.95;9.20;;;;;;;;;;4968278;28;20061;-75
2022/07/21 11:08:36;;;;;;;14.82;9.93;;;;;;;;;;4970601;28;20109;-75
2022/07/21 11:11:16;;;;;;;14.88;9.40;;;;;;;;;;4962487;28;20027;-75
2022/07/21 11:14:20;;;;;;;15.52;10.45;;;;;;;;;;4979968;28;20038;-76
2022/07/21 11:16:49;;;;;;;15.25;9.73;;;;;;;;;;4962552;28;20043;-78
2022/07/21 11:19:39;;;;;;;23.52;10.65;;;;;;;;;;4958562;28;20035;-76
2022/07/21 11:22:09;;;;;;;21.20;9.73;;;;;;;;;;4978287;28;20069;-76
2022/07/21 11:24:35;;;;;;;20.52;10.70;;;;;;;;;;4967993;28;20050;-75
2022/07/21 11:27:06;;;;;;;17.42;10.05;;;;;;;;;;4967169;28;20280;-77
2022/07/21 11:29:33;;;;;;;15.60;10.60;;;;;;;;;;4961728;28;20054;-78
2022/07/21 11:32:01;;;;;;;13.98;10.60;;;;;;;;;;4967269;28;20045;-77
2022/07/21 11:34:36;;;;;;;13.85;11.55;;;;;;;;;;4965826;28;20703;-78
2022/07/21 11:37:03;;;;;;;13.90;9.68;;;;;;;;;;4965836;28;20125;-77
2022/07/21 11:39:29;;;;;;;15.15;10.15;;;;;;;;;;4959975;28;20050;-78
2022/07/21 11:42:05;;;;;;;18.60;10.32;;;;;;;;;;4961258;28;20121;-78
2022/07/21 11:44:32;;;;;;;17.23;11.07;;;;;;;;;;4961012;28;20031;-77
2022/07/21 11:47:01;;;;;;;13.68;9.85;;;;;;;;;;4969394;28;20026;-76
2022/07/21 11:49:28;;;;;;;17.48;10.48;;;;;;;;;;4963663;28;20043;-78
2022/07/21 11:51:58;;;;;;;17.08;10.70;;;;;;;;;;4966544;28;20078;-77
2022/07/21 11:54:34;;;;;;;13.93;10.02;;;;;;;;;;4967321;28;20045;-77
2022/07/21 11:57:03;;;;;;;14.15;9.55;;;;;;;;;;4965970;28;20262;-76
2022/07/21 11:59:29;;;;;;;14.68;10.13;;;;;;;;;;4963543;28;20085;-76
2022/07/21 12:02:07;;;;;;;13.77;9.63;;;;;;;;;;4955029;28;20153;-77
2022/07/21 12:04:41;;;;;;;19.05;9.82;;;;;;;;;;4970085;28;20444;-77
2022/07/21 12:07:20;;;;;;;13.35;10.15;;;;;;;;;;4967093;28;20039;-75
2022/07/21 12:09:51;;;;;;;17.98;9.77;;;;;;;;;;4970122;28;20042;-76
2022/07/21 12:12:42;;;;;;;11.95;9.88;;;;;;;;;;4958304;28;20042;-76
2022/07/21 12:15:18;;;;;;;13.57;9.48;;;;;;;;;;4965412;28;20161;-76
2022/07/21 12:17:47;;;;;;;11.93;9.15;;;;;;;;;;4967913;28;20397;-76
2022/07/21 12:20:23;;;;;;;12.65;8.52;;;;;;;;;;4962722;28;20030;-78
2022/07/21 12:22:49;;;;;;;15.18;8.88;;;;;;;;;;4949880;28;20031;-76
2022/07/21 12:25:17;;;;;;;15.13;8.32;;;;;;;;;;4978665;28;20034;-76
2022/07/21 12:27:49;;;;;;;15.15;7.55;;;;;;;;;;4964998;28;20027;-76
2022/07/21 12:30:38;;;;;;;8.32;6.05;;;;;;;;;;4975579;28;20081;-76
2022/07/21 12:33:10;;;;;;;10.15;5.97;;;;;;;;;;4975773;28;20121;-77
2022/07/21 12:35:44;;;;;;;12.75;6.80;;;;;;;;;;4968167;28;20030;-76
2022/07/21 12:38:14;;;;;;;8.80;6.70;;;;;;;;;;4980027;28;20358;-75
2022/07/21 12:40:47;;;;;;;7.05;6.35;;;;;;;;;;4971684;28;20038;-76
2022/07/21 12:43:20;;;;;;;19.55;6.93;;;;;;;;;;4964832;28;20227;-76
2022/07/21 12:46:10;;;;;;;9.40;6.18;;;;;;;;;;4970766;28;20360;-77
2022/07/21 12:48:38;;;;;;;11.05;5.63;;;;;;;;;;4961561;28;20043;-77
2022/07/21 12:51:26;;;;;;;9.23;5.10;;;;;;;;;;4965372;28;20039;-75
2022/07/21 12:53:55;;;;;;;8.15;5.07;;;;;;;;;;4966104;28;20062;-77
2022/07/21 12:56:24;;;;;;;8.20;5.38;;;;;;;;;;4969827;28;20059;-76
2022/07/21 12:58:51;;;;;;;13.55;5.65;;;;;;;;;;4964447;28;20043;-77
2022/07/21 13:01:20;;;;;;;8.25;4.68;;;;;;;;;;4965823;28;20471;-77
2022/07/21 13:03:46;;;;;;;5.72;4.57;;;;;;;;;;4969857;28;20435;-75
2022/07/21 13:06:16;;;;;;;6.65;5.53;;;;;;;;;;4971168;28;20421;-77
2022/07/21 13:08:43;;;;;;;5.68;5.00;;;;;;;;;;4956207;28;20035;-77
2022/07/21 13:11:12;;;;;;;8.05;5.03;;;;;;;;;;4960965;28;20038;-76
2022/07/21 13:13:38;;;;;;;6.50;4.90;;;;;;;;;;4969334;28;20037;-75
2022/07/21 13:16:05;;;;;;;5.93;4.93;;;;;;;;;;4982913;28;20034;-77
2022/07/21 13:18:31;;;;;;;5.82;4.85;;;;;;;;;;4967537;28;20475;-76
2022/07/21 13:20:56;;;;;;;9.20;4.82;;;;;;;;;;4967178;28;20081;-75
2022/07/21 13:23:22;;;;;;;9.52;4.63;;;;;;;;;;4966811;28;20022;-76
2022/07/21 13:25:49;;;;;;;15.60;7.53;;;;;;;;;;4944090;28;20051;-75
2022/07/21 13:28:16;;;;;;;8.65;5.38;;;;;;;;;;4967112;28;20046;-77
2022/07/21 13:30:42;;;;;;;6.05;4.45;;;;;;;;;;4955960;28;20154;-76
2022/07/21 13:33:08;;;;;;;10.52;4.80;;;;;;;;;;4963578;28;20176;-78
2022/07/21 13:35:35;;;;;;;13.25;4.85;;;;;;;;;;4967765;28;20034;-79
2022/07/21 13:38:01;;;;;;;7.60;4.97;;;;;;;;;;4966168;28;20023;-77
2022/07/21 13:40:28;;;;;;;10.93;4.95;;;;;;;;;;4972915;28;20077;-75
2022/07/21 13:42:53;;;;;;;7.18;4.43;;;;;;;;;;4950939;28;20856;-77
2022/07/21 13:45:19;;;;;;;8.98;4.68;;;;;;;;;;4969114;28;20122;-77
2022/07/21 13:47:45;;;;;;;6.18;4.97;;;;;;;;;;4952231;28;20046;-76
2022/07/21 13:50:11;;;;;;;8.90;4.88;;;;;;;;;;4968097;28;20043;-76
2022/07/21 13:52:38;;;;;;;12.10;5.75;;;;;;;;;;4967089;28;20035;-79
2022/07/21 13:55:08;;;;;;;13.55;5.30;;;;;;;;;;4969869;28;20466;-77
2022/07/21 13:57:35;;;;;;;10.00;5.57;;;;;;;;;;4963130;28;20027;-77
2022/07/21 14:00:06;;;;;;;6.85;5.00;;;;;;;;;;4970033;28;20030;-77
2022/07/21 14:02:32;;;;;;;10.63;5.32;;;;;;;;;;4956286;28;20018;-78
2022/07/21 14:04:58;;;;;;;5.95;5.35;;;;;;;;;;4965961;28;20070;-77
2022/07/21 14:07:23;;;;;;;6.10;4.68;;;;;;;;;;4968886;28;20050;-76
2022/07/21 14:09:49;;;;;;;9.13;5.13;;;;;;;;;;4965505;28;20027;-77
2022/07/21 14:12:15;;;;;;;10.82;5.55;;;;;;;;;;4987218;28;20031;-77
2022/07/21 14:14:41;;;;;;;7.35;5.60;;;;;;;;;;4971000;28;20045;-76
2022/07/21 14:17:07;;;;;;;7.82;5.75;;;;;;;;;;4967982;28;20433;-77
2022/07/21 14:19:32;;;;;;;9.90;6.30;;;;;;;;;;4969321;28;20080;-77
2022/07/21 14:21:58;;;;;;;9.45;6.30;;;;;;;;;;4969699;28;20421;-77
2022/07/21 14:27:09;;;;;;;13.13;5.97;;;;;;;;;;4970133;28;20053;-77
2022/07/21 14:29:34;;;;;;;11.48;5.93;;;;;;;;;;4968349;28;20018;-77
2022/07/21 14:32:00;;;;;;;9.13;5.60;;;;;;;;;;4967562;28;20347;-77
2022/07/21 14:34:25;;;;;;;8.90;4.93;;;;;;;;;;4970113;28;20035;-77
2022/07/21 14:36:52;;;;;;;6.60;5.72;;;;;;;;;;4968192;28;20156;-78
2022/07/21 14:39:18;;;;;;;7.15;5.82;;;;;;;;;;4970256;28;20031;-77
2022/07/21 14:41:44;;;;;;;9.32;5.68;;;;;;;;;;4966432;28;20026;-77
2022/07/21 14:44:10;;;;;;;10.13;5.35;;;;;;;;;;4966580;28;20023;-82
2022/07/21 14:46:36;;;;;;;8.00;5.22;;;;;;;;;;4973268;28;20542;-77